sensor_id;sensor_type;location;lat;lon;timestamp;pressure;altitude;pressure_sealevel;temperature
69785;BMP280;14177;51.520;6.764;2022-08-11T00:01:59;101922.53;;;23.32
69785;BMP280;14177;51.520;6.764;2022-08-11T00:04:35;101914.06;;;23.27
69785;BMP280;14177;51.520;6.764;2022-08-11T00:07:04;101919.56;;;23.24
69785;BMP280;14177;51.520;6.764;2022-08-11T00:09:37;101919.00;;;23.19
69785;BMP280;14177;51.520;6.764;2022-08-11T00:12:14;101918.25;;;23.17
69785;BMP280;14177;51.520;6.764;2022-08-11T00:14:42;101912.28;;;23.13
69785;BMP280;14177;51.520;6.764;2022-08-11T00:17:13;101900.09;;;23.11
69785;BMP280;14177;51.520;6.764;2022-08-11T00:19:47;101918.81;;;23.08
69785;BMP280;14177;51.520;6.764;2022-08-11T00:22:38;101921.66;;;23.05
69785;BMP280;14177;51.520;6.764;2022-08-11T00:25:12;101923.75;;;23.00
69785;BMP280;14177;51.520;6.764;2022-08-11T00:27:40;101926.81;;;22.94
69785;BMP280;14177;51.520;6.764;2022-08-11T00:30:10;101927.00;;;22.91
69785;BMP280;14177;51.520;6.764;2022-08-11T00:32:41;101925.50;;;22.87
69785;BMP280;14177;51.520;6.764;2022-08-11T00:35:15;101931.09;;;22.82
69785;BMP280;14177;51.520;6.764;2022-08-11T00:38:05;101927.78;;;22.79
69785;BMP280;14177;51.520;6.764;2022-08-11T00:40:43;101927.97;;;22.76
69785;BMP280;14177;51.520;6.764;2022-08-11T00:43:37;101929.22;;;22.70
69785;BMP280;14177;51.520;6.764;2022-08-11T00:46:32;101931.19;;;22.67
69785;BMP280;14177;51.520;6.764;2022-08-11T01:15:28;101936.47;;;22.11
69785;BMP280;14177;51.520;6.764;2022-08-11T01:18:56;101932.41;;;22.06
69785;BMP280;14177;51.520;6.764;2022-08-11T01:29:18;101926.63;;;21.85
69785;BMP280;14177;51.520;6.764;2022-08-11T01:47:23;101924.56;;;21.61
69785;BMP280;14177;51.520;6.764;2022-08-11T01:50:39;101922.94;;;21.58
69785;BMP280;14177;51.520;6.764;2022-08-11T01:56:29;101931.50;;;21.48
69785;BMP280;14177;51.520;6.764;2022-08-11T02:04:58;101931.69;;;21.29
69785;BMP280;14177;51.520;6.764;2022-08-11T02:07:51;101933.06;;;21.21
69785;BMP280;14177;51.520;6.764;2022-08-11T02:11:14;101940.56;;;21.13
69785;BMP280;14177;51.520;6.764;2022-08-11T02:25:45;101938.63;;;20.86
69785;BMP280;14177;51.520;6.764;2022-08-11T04:14:09;101933.25;;;19.02
69785;BMP280;14177;51.520;6.764;2022-08-11T04:20:35;101928.25;;;18.96
69785;BMP280;14177;51.520;6.764;2022-08-11T04:24:02;101930.44;;;18.88
69785;BMP280;14177;51.520;6.764;2022-08-11T04:30:27;101929.00;;;18.81
69785;BMP280;14177;51.520;6.764;2022-08-11T04:36:08;101922.09;;;18.79
69785;BMP280;14177;51.520;6.764;2022-08-11T04:39:09;101925.50;;;18.81
69785;BMP280;14177;51.520;6.764;2022-08-11T04:51:59;101937.97;;;18.96
69785;BMP280;14177;51.520;6.764;2022-08-11T05:11:44;101932.19;;;19.42
69785;BMP280;14177;51.520;6.764;2022-08-11T05:14:37;101932.66;;;19.50
69785;BMP280;14177;51.520;6.764;2022-08-11T05:17:36;101941.16;;;19.56
69785;BMP280;14177;51.520;6.764;2022-08-11T05:20:25;101945.25;;;19.61
69785;BMP280;14177;51.520;6.764;2022-08-11T05:23:12;101937.81;;;19.69
69785;BMP280;14177;51.520;6.764;2022-08-11T05:26:02;101944.31;;;19.79
69785;BMP280;14177;51.520;6.764;2022-08-11T05:29:35;101955.25;;;19.89
69785;BMP280;14177;51.520;6.764;2022-08-11T05:32:24;101951.38;;;19.96
69785;BMP280;14177;51.520;6.764;2022-08-11T05:35:13;101953.56;;;20.05
69785;BMP280;14177;51.520;6.764;2022-08-11T05:38:09;101957.44;;;20.15
69785;BMP280;14177;51.520;6.764;2022-08-11T05:40:58;101954.31;;;20.24
69785;BMP280;14177;51.520;6.764;2022-08-11T05:43:44;101956.66;;;20.30
69785;BMP280;14177;51.520;6.764;2022-08-11T05:46:48;101961.44;;;20.39
69785;BMP280;14177;51.520;6.764;2022-08-11T05:49:35;101951.22;;;20.48
69785;BMP280;14177;51.520;6.764;2022-08-11T05:52:28;101953.13;;;20.62
69785;BMP280;14177;51.520;6.764;2022-08-11T05:55:24;101961.41;;;20.71
69785;BMP280;14177;51.520;6.764;2022-08-11T05:58:38;101954.63;;;20.83
69785;BMP280;14177;51.520;6.764;2022-08-11T06:01:12;101953.38;;;20.89
69785;BMP280;14177;51.520;6.764;2022-08-11T06:03:44;101956.50;;;20.96
69785;BMP280;14177;51.520;6.764;2022-08-11T06:06:31;101952.34;;;21.07
69785;BMP280;14177;51.520;6.764;2022-08-11T06:08:59;101957.84;;;21.18
69785;BMP280;14177;51.520;6.764;2022-08-11T06:11:27;101955.56;;;21.28
69785;BMP280;14177;51.520;6.764;2022-08-11T06:14:12;101957.41;;;21.41
69785;BMP280;14177;51.520;6.764;2022-08-11T06:16:46;101951.50;;;21.52
69785;BMP280;14177;51.520;6.764;2022-08-11T06:19:16;101950.06;;;21.62
69785;BMP280;14177;51.520;6.764;2022-08-11T06:21:47;101941.69;;;21.69
69785;BMP280;14177;51.520;6.764;2022-08-11T06:24:15;101948.91;;;21.81
69785;BMP280;14177;51.520;6.764;2022-08-11T06:26:50;101943.91;;;21.91
69785;BMP280;14177;51.520;6.764;2022-08-11T06:29:48;101946.97;;;21.99
69785;BMP280;14177;51.520;6.764;2022-08-11T06:32:31;101946.31;;;22.09
69785;BMP280;14177;51.520;6.764;2022-08-11T06:35:21;101944.03;;;22.17
69785;BMP280;14177;51.520;6.764;2022-08-11T06:38:09;101946.78;;;22.29
69785;BMP280;14177;51.520;6.764;2022-08-11T06:40:50;101944.81;;;22.33
69785;BMP280;14177;51.520;6.764;2022-08-11T06:46:47;101941.63;;;22.56
69785;BMP280;14177;51.520;6.764;2022-08-11T06:49:30;101937.25;;;22.69
69785;BMP280;14177;51.520;6.764;2022-08-11T06:52:17;101934.78;;;22.80
69785;BMP280;14177;51.520;6.764;2022-08-11T06:55:27;101942.72;;;22.94
69785;BMP280;14177;51.520;6.764;2022-08-11T06:58:30;101947.97;;;23.08
69785;BMP280;14177;51.520;6.764;2022-08-11T07:01:34;101948.72;;;23.24
69785;BMP280;14177;51.520;6.764;2022-08-11T07:04:08;101943.06;;;23.42
69785;BMP280;14177;51.520;6.764;2022-08-11T07:06:49;101945.53;;;23.57
69785;BMP280;14177;51.520;6.764;2022-08-11T07:13:04;101941.91;;;23.85
69785;BMP280;14177;51.520;6.764;2022-08-11T07:16:16;101943.72;;;23.97
69785;BMP280;14177;51.520;6.764;2022-08-11T07:19:00;101940.44;;;24.06
69785;BMP280;14177;51.520;6.764;2022-08-11T07:21:47;101944.28;;;24.27
69785;BMP280;14177;51.520;6.764;2022-08-11T07:25:02;101943.09;;;24.43
69785;BMP280;14177;51.520;6.764;2022-08-11T07:28:17;101936.44;;;24.50
69785;BMP280;14177;51.520;6.764;2022-08-11T07:31:13;101946.41;;;24.59
69785;BMP280;14177;51.520;6.764;2022-08-11T07:34:01;101934.38;;;24.66
69785;BMP280;14177;51.520;6.764;2022-08-11T07:36:49;101936.44;;;24.86
69785;BMP280;14177;51.520;6.764;2022-08-11T07:39:22;101939.25;;;25.08
69785;BMP280;14177;51.520;6.764;2022-08-11T07:41:53;101948.44;;;25.27
69785;BMP280;14177;51.520;6.764;2022-08-11T07:44:22;101943.47;;;25.46
69785;BMP280;14177;51.520;6.764;2022-08-11T07:46:59;101921.53;;;25.66
69785;BMP280;14177;51.520;6.764;2022-08-11T07:49:47;101934.44;;;25.83
69785;BMP280;14177;51.520;6.764;2022-08-11T07:52:36;101929.75;;;25.98
69785;BMP280;14177;51.520;6.764;2022-08-11T07:55:11;101917.94;;;26.12
69785;BMP280;14177;51.520;6.764;2022-08-11T07:57:43;101928.81;;;26.31
69785;BMP280;14177;51.520;6.764;2022-08-11T08:00:52;101921.84;;;26.52
69785;BMP280;14177;51.520;6.764;2022-08-11T08:03:49;101916.25;;;26.77
69785;BMP280;14177;51.520;6.764;2022-08-11T08:06:36;101919.00;;;27.09
69785;BMP280;14177;51.520;6.764;2022-08-11T08:09:23;101918.28;;;27.38
69785;BMP280;14177;51.520;6.764;2022-08-11T08:12:11;101913.41;;;27.63
69785;BMP280;14177;51.520;6.764;2022-08-11T08:14:58;101912.22;;;27.88
69785;BMP280;14177;51.520;6.764;2022-08-11T08:17:46;101911.66;;;28.14
69785;BMP280;14177;51.520;6.764;2022-08-11T08:20:46;101911.78;;;28.33
69785;BMP280;14177;51.520;6.764;2022-08-11T08:23:21;101914.84;;;28.58
69785;BMP280;14177;51.520;6.764;2022-08-11T08:26:04;101920.97;;;28.79
69785;BMP280;14177;51.520;6.764;2022-08-11T08:29:08;101924.28;;;28.92
69785;BMP280;14177;51.520;6.764;2022-08-11T08:34:54;101914.31;;;29.32
69785;BMP280;14177;51.520;6.764;2022-08-11T08:37:24;101911.66;;;29.51
69785;BMP280;14177;51.520;6.764;2022-08-11T08:40:13;101909.81;;;29.80
69785;BMP280;14177;51.520;6.764;2022-08-11T08:42:54;101927.38;;;30.11
69785;BMP280;14177;51.520;6.764;2022-08-11T08:45:24;101906.75;;;30.21
69785;BMP280;14177;51.520;6.764;2022-08-11T08:48:04;101911.06;;;30.41
69785;BMP280;14177;51.520;6.764;2022-08-11T08:51:02;101914.13;;;30.55
69785;BMP280;14177;51.520;6.764;2022-08-11T08:53:52;101919.72;;;30.89
69785;BMP280;14177;51.520;6.764;2022-08-11T08:56:27;101914.06;;;31.18
69785;BMP280;14177;51.520;6.764;2022-08-11T08:58:58;101905.53;;;31.58
69785;BMP280;14177;51.520;6.764;2022-08-11T09:01:37;101909.63;;;31.87
69785;BMP280;14177;51.520;6.764;2022-08-11T09:04:08;101908.72;;;32.22
69785;BMP280;14177;51.520;6.764;2022-08-11T09:06:40;101915.53;;;32.42
69785;BMP280;14177;51.520;6.764;2022-08-11T09:09:19;101900.97;;;32.52
69785;BMP280;14177;51.520;6.764;2022-08-11T09:11:48;101913.69;;;32.75
69785;BMP280;14177;51.520;6.764;2022-08-11T09:14:32;101912.53;;;32.78
69785;BMP280;14177;51.520;6.764;2022-08-11T09:17:20;101918.41;;;32.81
69785;BMP280;14177;51.520;6.764;2022-08-11T09:19:54;101916.75;;;32.88
69785;BMP280;14177;51.520;6.764;2022-08-11T09:22:26;101906.50;;;33.00
69785;BMP280;14177;51.520;6.764;2022-08-11T09:25:14;101909.22;;;33.08
69785;BMP280;14177;51.520;6.764;2022-08-11T09:28:01;101908.50;;;32.90
69785;BMP280;14177;51.520;6.764;2022-08-11T09:30:31;101898.63;;;32.98
69785;BMP280;14177;51.520;6.764;2022-08-11T09:33:01;101898.00;;;33.28
69785;BMP280;14177;51.520;6.764;2022-08-11T09:35:34;101895.84;;;33.48
69785;BMP280;14177;51.520;6.764;2022-08-11T09:38:05;101884.06;;;33.73
69785;BMP280;14177;51.520;6.764;2022-08-11T09:40:51;101895.94;;;34.18
69785;BMP280;14177;51.520;6.764;2022-08-11T09:43:24;101885.13;;;34.34
69785;BMP280;14177;51.520;6.764;2022-08-11T09:46:11;101888.97;;;34.39
69785;BMP280;14177;51.520;6.764;2022-08-11T09:48:44;101891.41;;;34.65
69785;BMP280;14177;51.520;6.764;2022-08-11T09:51:13;101886.03;;;34.95
69785;BMP280;14177;51.520;6.764;2022-08-11T09:53:42;101882.09;;;35.28
69785;BMP280;14177;51.520;6.764;2022-08-11T09:56:29;101881.81;;;35.37
69785;BMP280;14177;51.520;6.764;2022-08-11T09:59:20;101892.63;;;35.37
69785;BMP280;14177;51.520;6.764;2022-08-11T10:01:53;101871.88;;;35.38
69785;BMP280;14177;51.520;6.764;2022-08-11T10:04:44;101878.38;;;35.29
69785;BMP280;14177;51.520;6.764;2022-08-11T10:07:15;101871.41;;;35.57
69785;BMP280;14177;51.520;6.764;2022-08-11T10:10:00;101875.47;;;35.90
69785;BMP280;14177;51.520;6.764;2022-08-11T10:12:47;101880.63;;;35.99
69785;BMP280;14177;51.520;6.764;2022-08-11T10:15:18;101874.63;;;35.89
69785;BMP280;14177;51.520;6.764;2022-08-11T10:18:16;101864.28;;;35.78
69785;BMP280;14177;51.520;6.764;2022-08-11T10:21:41;101862.50;;;35.85
69785;BMP280;14177;51.520;6.764;2022-08-11T10:24:10;101858.56;;;35.73
69785;BMP280;14177;51.520;6.764;2022-08-11T10:26:57;101853.25;;;35.80
69785;BMP280;14177;51.520;6.764;2022-08-11T10:29:37;101852.56;;;36.00
69785;BMP280;14177;51.520;6.764;2022-08-11T10:32:28;101844.75;;;36.20
69785;BMP280;14177;51.520;6.764;2022-08-11T10:35:31;101842.03;;;36.20
69785;BMP280;14177;51.520;6.764;2022-08-11T10:38:00;101843.88;;;35.90
69785;BMP280;14177;51.520;6.764;2022-08-11T10:40:38;101840.31;;;35.75
69785;BMP280;14177;51.520;6.764;2022-08-11T10:43:07;101841.78;;;35.78
69785;BMP280;14177;51.520;6.764;2022-08-11T10:46:02;101834.72;;;35.91
69785;BMP280;14177;51.520;6.764;2022-08-11T10:48:58;101837.19;;;36.30
69785;BMP280;14177;51.520;6.764;2022-08-11T10:51:40;101838.47;;;36.34
69785;BMP280;14177;51.520;6.764;2022-08-11T10:54:33;101831.75;;;36.30
69785;BMP280;14177;51.520;6.764;2022-08-11T10:57:34;101818.22;;;36.15
69785;BMP280;14177;51.520;6.764;2022-08-11T11:00:32;101826.59;;;36.49
69785;BMP280;14177;51.520;6.764;2022-08-11T11:03:12;101818.97;;;36.73
69785;BMP280;14177;51.520;6.764;2022-08-11T11:06:05;101819.38;;;36.70
69785;BMP280;14177;51.520;6.764;2022-08-11T11:09:04;101805.63;;;36.37
69785;BMP280;14177;51.520;6.764;2022-08-11T11:11:42;101801.31;;;36.56
69785;BMP280;14177;51.520;6.764;2022-08-11T11:14:32;101810.66;;;37.10
69785;BMP280;14177;51.520;6.764;2022-08-11T11:17:31;101808.59;;;37.12
69785;BMP280;14177;51.520;6.764;2022-08-11T11:26:25;101802.31;;;37.60
69785;BMP280;14177;51.520;6.764;2022-08-11T11:32:16;101801.53;;;37.93
69785;BMP280;14177;51.520;6.764;2022-08-11T11:35:23;101791.53;;;38.00
69785;BMP280;14177;51.520;6.764;2022-08-11T11:37:55;101780.63;;;38.28
69785;BMP280;14177;51.520;6.764;2022-08-11T11:40:32;101785.16;;;38.21
69785;BMP280;14177;51.520;6.764;2022-08-11T11:43:00;101788.50;;;38.16
69785;BMP280;14177;51.520;6.764;2022-08-11T11:45:28;101779.28;;;38.11
69785;BMP280;14177;51.520;6.764;2022-08-11T11:47:59;101774.16;;;37.88
69785;BMP280;14177;51.520;6.764;2022-08-11T11:50:36;101770.41;;;37.89
69785;BMP280;14177;51.520;6.764;2022-08-11T11:53:08;101769.44;;;38.03
69785;BMP280;14177;51.520;6.764;2022-08-11T11:55:41;101769.84;;;38.00
69785;BMP280;14177;51.520;6.764;2022-08-11T11:58:17;101765.00;;;37.96
69785;BMP280;14177;51.520;6.764;2022-08-11T12:05:07;101763.56;;;37.93
69785;BMP280;14177;51.520;6.764;2022-08-11T12:07:38;101762.56;;;38.07
69785;BMP280;14177;51.520;6.764;2022-08-11T12:13:50;101755.47;;;38.60
69785;BMP280;14177;51.520;6.764;2022-08-11T12:16:21;101747.75;;;38.57
69785;BMP280;14177;51.520;6.764;2022-08-11T12:19:23;101734.41;;;38.75
69785;BMP280;14177;51.520;6.764;2022-08-11T12:21:54;101734.84;;;38.85
69785;BMP280;14177;51.520;6.764;2022-08-11T12:24:41;101740.19;;;38.46
69785;BMP280;14177;51.520;6.764;2022-08-11T12:27:29;101740.16;;;38.33
69785;BMP280;14177;51.520;6.764;2022-08-11T12:30:01;101734.56;;;38.54
69785;BMP280;14177;51.520;6.764;2022-08-11T12:32:36;101733.53;;;38.55
69785;BMP280;14177;51.520;6.764;2022-08-11T12:35:06;101730.34;;;38.38
69785;BMP280;14177;51.520;6.764;2022-08-11T12:37:44;101736.31;;;38.14
69785;BMP280;14177;51.520;6.764;2022-08-11T12:40:21;101738.09;;;37.88
69785;BMP280;14177;51.520;6.764;2022-08-11T12:43:31;101719.00;;;37.41
69785;BMP280;14177;51.520;6.764;2022-08-11T12:46:30;101714.47;;;37.82
69785;BMP280;14177;51.520;6.764;2022-08-11T12:49:05;101706.22;;;38.03
69785;BMP280;14177;51.520;6.764;2022-08-11T12:51:53;101701.88;;;37.74
69785;BMP280;14177;51.520;6.764;2022-08-11T12:55:01;101693.06;;;37.60
69785;BMP280;14177;51.520;6.764;2022-08-11T12:57:40;101698.31;;;38.08
69785;BMP280;14177;51.520;6.764;2022-08-11T13:00:28;101682.78;;;38.68
69785;BMP280;14177;51.520;6.764;2022-08-11T13:03:18;101684.88;;;39.05
69785;BMP280;14177;51.520;6.764;2022-08-11T13:06:05;101689.66;;;39.35
69785;BMP280;14177;51.520;6.764;2022-08-11T13:08:36;101691.97;;;39.38
69785;BMP280;14177;51.520;6.764;2022-08-11T13:11:05;101687.16;;;39.40
69785;BMP280;14177;51.520;6.764;2022-08-11T13:14:12;101679.44;;;39.44
69785;BMP280;14177;51.520;6.764;2022-08-11T13:16:43;101674.56;;;39.52
69785;BMP280;14177;51.520;6.764;2022-08-11T13:19:30;101673.94;;;39.70
69785;BMP280;14177;51.520;6.764;2022-08-11T13:21:58;101677.91;;;39.67
69785;BMP280;14177;51.520;6.764;2022-08-11T13:24:29;101660.97;;;39.52
69785;BMP280;14177;51.520;6.764;2022-08-11T13:27:00;101660.81;;;39.34
69785;BMP280;14177;51.520;6.764;2022-08-11T13:29:28;101668.38;;;39.26
69785;BMP280;14177;51.520;6.764;2022-08-11T13:31:58;101674.22;;;39.36
69785;BMP280;14177;51.520;6.764;2022-08-11T13:34:29;101670.63;;;39.48
69785;BMP280;14177;51.520;6.764;2022-08-11T13:37:01;101665.41;;;39.60
69785;BMP280;14177;51.520;6.764;2022-08-11T13:39:33;101656.78;;;39.69
69785;BMP280;14177;51.520;6.764;2022-08-11T13:42:03;101658.63;;;39.75
69785;BMP280;14177;51.520;6.764;2022-08-11T13:44:36;101658.16;;;39.91
69785;BMP280;14177;51.520;6.764;2022-08-11T13:47:07;101650.66;;;39.80
69785;BMP280;14177;51.520;6.764;2022-08-11T13:49:38;101647.44;;;39.46
69785;BMP280;14177;51.520;6.764;2022-08-11T13:52:14;101656.63;;;39.38
69785;BMP280;14177;51.520;6.764;2022-08-11T13:54:45;101658.72;;;39.43
69785;BMP280;14177;51.520;6.764;2022-08-11T13:57:14;101655.84;;;39.25
69785;BMP280;14177;51.520;6.764;2022-08-11T14:00:07;101644.16;;;38.99
69785;BMP280;14177;51.520;6.764;2022-08-11T14:02:55;101636.88;;;38.73
69785;BMP280;14177;51.520;6.764;2022-08-11T14:05:38;101618.50;;;38.82
69785;BMP280;14177;51.520;6.764;2022-08-11T14:08:16;101629.56;;;38.74
69785;BMP280;14177;51.520;6.764;2022-08-11T14:11:06;101628.72;;;38.54
69785;BMP280;14177;51.520;6.764;2022-08-11T14:14:24;101627.69;;;38.55
69785;BMP280;14177;51.520;6.764;2022-08-11T14:16:55;101631.22;;;38.49
69785;BMP280;14177;51.520;6.764;2022-08-11T14:19:25;101637.91;;;38.53
69785;BMP280;14177;51.520;6.764;2022-08-11T14:21:54;101622.00;;;38.63
69785;BMP280;14177;51.520;6.764;2022-08-11T14:24:42;101614.28;;;38.99
69785;BMP280;14177;51.520;6.764;2022-08-11T14:27:17;101620.75;;;39.23
69785;BMP280;14177;51.520;6.764;2022-08-11T14:30:05;101626.19;;;39.10
69785;BMP280;14177;51.520;6.764;2022-08-11T14:32:55;101624.50;;;39.03
69785;BMP280;14177;51.520;6.764;2022-08-11T14:35:27;101631.59;;;39.04
69785;BMP280;14177;51.520;6.764;2022-08-11T14:37:57;101626.19;;;38.98
69785;BMP280;14177;51.520;6.764;2022-08-11T14:40:25;101617.03;;;38.92
69785;BMP280;14177;51.520;6.764;2022-08-11T14:43:11;101612.84;;;38.96
69785;BMP280;14177;51.520;6.764;2022-08-11T14:46:18;101608.63;;;39.00
69785;BMP280;14177;51.520;6.764;2022-08-11T14:49:04;101611.56;;;38.99
69785;BMP280;14177;51.520;6.764;2022-08-11T14:51:32;101609.06;;;39.04
69785;BMP280;14177;51.520;6.764;2022-08-11T14:54:00;101603.00;;;39.14
69785;BMP280;14177;51.520;6.764;2022-08-11T14:56:47;101596.69;;;39.27
69785;BMP280;14177;51.520;6.764;2022-08-11T14:59:14;101611.50;;;39.31
69785;BMP280;14177;51.520;6.764;2022-08-11T15:01:45;101601.50;;;39.25
69785;BMP280;14177;51.520;6.764;2022-08-11T15:04:31;101592.34;;;39.07
69785;BMP280;14177;51.520;6.764;2022-08-11T15:07:02;101603.44;;;38.99
69785;BMP280;14177;51.520;6.764;2022-08-11T15:09:30;101599.47;;;38.95
69785;BMP280;14177;51.520;6.764;2022-08-11T15:11:59;101594.88;;;38.89
69785;BMP280;14177;51.520;6.764;2022-08-11T15:14:56;101575.69;;;38.90
69785;BMP280;14177;51.520;6.764;2022-08-11T15:17:44;101583.16;;;38.95
69785;BMP280;14177;51.520;6.764;2022-08-11T15:20:17;101575.22;;;39.00
69785;BMP280;14177;51.520;6.764;2022-08-11T15:23:04;101575.66;;;38.97
69785;BMP280;14177;51.520;6.764;2022-08-11T15:25:57;101575.66;;;38.84
69785;BMP280;14177;51.520;6.764;2022-08-11T15:28:29;101571.91;;;38.85
69785;BMP280;14177;51.520;6.764;2022-08-11T15:31:16;101560.25;;;38.71
69785;BMP280;14177;51.520;6.764;2022-08-11T15:34:18;101562.13;;;38.58
69785;BMP280;14177;51.520;6.764;2022-08-11T15:37:10;101556.47;;;38.46
69785;BMP280;14177;51.520;6.764;2022-08-11T15:40:15;101560.88;;;38.41
69785;BMP280;14177;51.520;6.764;2022-08-11T15:43:27;101555.22;;;38.36
69785;BMP280;14177;51.520;6.764;2022-08-11T15:46:28;101548.53;;;38.12
69785;BMP280;14177;51.520;6.764;2022-08-11T15:49:12;101543.06;;;37.86
69785;BMP280;14177;51.520;6.764;2022-08-11T15:52:08;101544.44;;;37.70
69785;BMP280;14177;51.520;6.764;2022-08-11T15:54:40;101543.00;;;37.73
69785;BMP280;14177;51.520;6.764;2022-08-11T15:57:10;101537.78;;;37.78
69785;BMP280;14177;51.520;6.764;2022-08-11T16:00:08;101538.91;;;37.84
69785;BMP280;14177;51.520;6.764;2022-08-11T16:02:58;101542.53;;;37.57
69785;BMP280;14177;51.520;6.764;2022-08-11T16:05:46;101541.28;;;37.53
69785;BMP280;14177;51.520;6.764;2022-08-11T16:08:21;101548.03;;;37.36
69785;BMP280;14177;51.520;6.764;2022-08-11T16:10:59;101541.13;;;37.27
69785;BMP280;14177;51.520;6.764;2022-08-11T16:13:31;101536.09;;;37.18
69785;BMP280;14177;51.520;6.764;2022-08-11T16:16:00;101530.66;;;37.11
69785;BMP280;14177;51.520;6.764;2022-08-11T16:18:54;101539.59;;;37.12
69785;BMP280;14177;51.520;6.764;2022-08-11T16:21:32;101528.75;;;37.05
69785;BMP280;14177;51.520;6.764;2022-08-11T16:24:13;101534.63;;;36.81
69785;BMP280;14177;51.520;6.764;2022-08-11T16:27:03;101527.59;;;36.59
69785;BMP280;14177;51.520;6.764;2022-08-11T16:29:43;101534.00;;;36.52
69785;BMP280;14177;51.520;6.764;2022-08-11T16:32:21;101535.16;;;36.43
69785;BMP280;14177;51.520;6.764;2022-08-11T16:35:05;101531.91;;;36.27
69785;BMP280;14177;51.520;6.764;2022-08-11T16:37:54;101528.94;;;36.22
69785;BMP280;14177;51.520;6.764;2022-08-11T16:40:43;101523.69;;;36.14
69785;BMP280;14177;51.520;6.764;2022-08-11T16:43:16;101525.28;;;36.08
69785;BMP280;14177;51.520;6.764;2022-08-11T16:46:04;101520.94;;;35.93
69785;BMP280;14177;51.520;6.764;2022-08-11T16:48:53;101528.91;;;35.80
69785;BMP280;14177;51.520;6.764;2022-08-11T16:51:21;101522.59;;;35.73
69785;BMP280;14177;51.520;6.764;2022-08-11T16:53:49;101516.78;;;35.55
69785;BMP280;14177;51.520;6.764;2022-08-11T16:56:41;101515.59;;;35.43
69785;BMP280;14177;51.520;6.764;2022-08-11T16:59:35;101506.03;;;35.26
69785;BMP280;14177;51.520;6.764;2022-08-11T17:02:12;101517.53;;;35.13
69785;BMP280;14177;51.520;6.764;2022-08-11T17:05:08;101518.25;;;34.93
69785;BMP280;14177;51.520;6.764;2022-08-11T17:07:57;101518.53;;;34.84
69785;BMP280;14177;51.520;6.764;2022-08-11T17:10:56;101511.75;;;34.73
69785;BMP280;14177;51.520;6.764;2022-08-11T17:13:49;101521.75;;;34.65
69785;BMP280;14177;51.520;6.764;2022-08-11T17:16:26;101525.00;;;34.60
69785;BMP280;14177;51.520;6.764;2022-08-11T17:19:00;101509.69;;;34.38
69785;BMP280;14177;51.520;6.764;2022-08-11T17:21:37;101518.50;;;34.18
69785;BMP280;14177;51.520;6.764;2022-08-11T17:24:26;101510.69;;;34.00
69785;BMP280;14177;51.520;6.764;2022-08-11T17:26:55;101502.69;;;33.92
69785;BMP280;14177;51.520;6.764;2022-08-11T17:35:28;101502.09;;;33.52
69785;BMP280;14177;51.520;6.764;2022-08-11T17:40:41;101503.38;;;33.34
69785;BMP280;14177;51.520;6.764;2022-08-11T17:43:30;101504.44;;;33.25
69785;BMP280;14177;51.520;6.764;2022-08-11T17:46:18;101497.41;;;33.16
69785;BMP280;14177;51.520;6.764;2022-08-11T17:49:07;101505.31;;;33.09
69785;BMP280;14177;51.520;6.764;2022-08-11T17:51:37;101511.75;;;33.00
69785;BMP280;14177;51.520;6.764;2022-08-11T17:54:24;101515.63;;;32.90
69785;BMP280;14177;51.520;6.764;2022-08-11T17:57:13;101510.28;;;32.82
69785;BMP280;14177;51.520;6.764;2022-08-11T18:00:01;101510.50;;;32.72
69785;BMP280;14177;51.520;6.764;2022-08-11T18:02:43;101516.53;;;32.58
69785;BMP280;14177;51.520;6.764;2022-08-11T18:05:36;101513.38;;;32.47
69785;BMP280;14177;51.520;6.764;2022-08-11T18:08:08;101518.75;;;32.39
69785;BMP280;14177;51.520;6.764;2022-08-11T18:10:56;101525.81;;;32.32
69785;BMP280;14177;51.520;6.764;2022-08-11T18:14:07;101529.84;;;32.20
69785;BMP280;14177;51.520;6.764;2022-08-11T18:16:55;101519.75;;;32.06
69785;BMP280;14177;51.520;6.764;2022-08-11T18:19:41;101524.47;;;31.96
69785;BMP280;14177;51.520;6.764;2022-08-11T18:22:33;101523.44;;;31.89
69785;BMP280;14177;51.520;6.764;2022-08-11T18:25:25;101523.94;;;31.85
69785;BMP280;14177;51.520;6.764;2022-08-11T18:28:16;101526.44;;;31.70
69785;BMP280;14177;51.520;6.764;2022-08-11T18:31:04;101524.41;;;31.64
69785;BMP280;14177;51.520;6.764;2022-08-11T18:33:55;101524.34;;;31.56
69785;BMP280;14177;51.520;6.764;2022-08-11T18:37:14;101524.31;;;31.48
69785;BMP280;14177;51.520;6.764;2022-08-11T18:40:15;101520.63;;;31.41
69785;BMP280;14177;51.520;6.764;2022-08-11T18:43:06;101524.13;;;31.34
69785;BMP280;14177;51.520;6.764;2022-08-11T18:46:03;101543.19;;;31.23
69785;BMP280;14177;51.520;6.764;2022-08-11T18:49:06;101539.81;;;31.13
69785;BMP280;14177;51.520;6.764;2022-08-11T18:52:14;101532.69;;;31.04
69785;BMP280;14177;51.520;6.764;2022-08-11T18:55:04;101536.16;;;30.97
69785;BMP280;14177;51.520;6.764;2022-08-11T18:57:55;101536.31;;;30.87
69785;BMP280;14177;51.520;6.764;2022-08-11T19:00:44;101543.13;;;30.82
69785;BMP280;14177;51.520;6.764;2022-08-11T19:03:32;101541.56;;;30.71
69785;BMP280;14177;51.520;6.764;2022-08-11T19:06:22;101550.69;;;30.61
69785;BMP280;14177;51.520;6.764;2022-08-11T19:09:13;101550.09;;;30.49
69785;BMP280;14177;51.520;6.764;2022-08-11T19:12:02;101550.34;;;30.38
69785;BMP280;14177;51.520;6.764;2022-08-11T19:14:51;101550.75;;;30.26
69785;BMP280;14177;51.520;6.764;2022-08-11T19:17:42;101555.66;;;30.13
69785;BMP280;14177;51.520;6.764;2022-08-11T19:20:32;101555.56;;;30.05
69785;BMP280;14177;51.520;6.764;2022-08-11T19:23:28;101563.50;;;29.97
69785;BMP280;14177;51.520;6.764;2022-08-11T19:26:17;101568.25;;;29.85
69785;BMP280;14177;51.520;6.764;2022-08-11T19:29:04;101566.94;;;29.72
69785;BMP280;14177;51.520;6.764;2022-08-11T19:32:12;101569.28;;;29.58
69785;BMP280;14177;51.520;6.764;2022-08-11T19:35:01;101574.56;;;29.40
69785;BMP280;14177;51.520;6.764;2022-08-11T19:37:48;101577.72;;;29.26
69785;BMP280;14177;51.520;6.764;2022-08-11T19:40:38;101580.22;;;29.10
69785;BMP280;14177;51.520;6.764;2022-08-11T19:43:27;101585.44;;;28.93